Time;durP1;ratioP1;P1;durP2;ratioP2;P2;SDS_P1;SDS_P2;PMS_P1;PMS_P2;Temp;Humidity;BMP_temperature;BMP_pressure;BME280_temperature;BME280_humidity;BME280_pressure;Samples;Min_cycle;Max_cycle;Signal;HPM_P1;HPM_P2
2023/10/10 00:09:19;;;;;;;;;;;13.50;99.90;;;;;;21006484;28;19919;-80
2023/10/10 00:19:37;;;;;;;;;;;13.40;99.90;;;;;;21002943;28;19923;-81
2023/10/10 00:29:40;;;;;;;;;;;13.30;99.90;;;;;;21003844;28;19952;-81
2023/10/10 00:39:41;;;;;;;;;;;13.10;99.90;;;;;;21007752;28;19954;-80
2023/10/10 00:49:44;;;;;;;;;;;12.80;99.90;;;;;;21011259;28;19920;-80
2023/10/10 00:59:46;;;;;;;;;;;12.90;99.90;;;;;;20999113;28;20245;-79
2023/10/10 01:09:56;;;;;;;;;;;13.00;99.90;;;;;;21004971;28;20368;-80
2023/10/10 01:20:09;;;;;;;;;;;13.00;99.90;;;;;;21009404;28;19920;-81
2023/10/10 01:30:19;;;;;;;;;;;12.90;99.90;;;;;;21004025;28;19924;-79
2023/10/10 01:40:19;;;;;;;;;;;12.60;99.90;;;;;;21006461;28;19967;-81
2023/10/10 01:50:20;;;;;;;;;;;12.50;99.90;;;;;;21003512;28;19919;-81
2023/10/10 02:00:26;;;;;;;;;;;12.60;99.90;;;;;;21022843;28;20411;-80
2023/10/10 02:10:29;;;;;;;;;;;12.70;99.90;;;;;;21018210;28;20457;-80
2023/10/10 02:20:49;;;;;;;;;;;12.90;99.90;;;;;;21009433;28;20004;-80
2023/10/10 02:30:51;;;;;;;;;;;13.00;99.90;;;;;;21016327;28;20295;-80
2023/10/10 02:40:55;;;;;;;;;;;12.80;99.90;;;;;;21010969;28;19917;-81
2023/10/10 02:50:56;;;;;;;;;;;11.90;99.90;;;;;;21016824;28;20524;-81
2023/10/10 03:00:59;;;;;;;;;;;12.20;99.90;;;;;;21018042;28;19928;-81
2023/10/10 03:11:00;;;;;;;;;;;12.00;99.90;;;;;;21008421;28;19936;-80
2023/10/10 03:21:12;;;;;;;;;;;11.80;99.90;;;;;;21018483;28;20449;-80
2023/10/10 03:41:26;;;;;;;;;;;11.70;99.90;;;;;;21024329;28;20007;-81
2023/10/10 05:24:24;;;;;;;;;;;11.10;99.90;;;;;;20992286;28;19920;-80
2023/10/10 05:34:25;;;;;;;;;;;11.10;99.90;;;;;;20999025;28;20061;-79
2023/10/10 05:44:25;;;;;;;;;;;11.30;99.90;;;;;;21004092;28;19913;-80
2023/10/10 05:54:26;;;;;;;;;;;11.10;99.90;;;;;;21010054;28;20371;-80
2023/10/10 06:04:28;;;;;;;;;;;11.20;99.90;;;;;;20995814;28;19934;-80
2023/10/10 06:14:28;;;;;;;;;;;11.20;99.90;;;;;;20995062;28;19916;-80
2023/10/10 06:24:32;;;;;;;;;;;11.60;99.90;;;;;;21018185;28;19917;-79
2023/10/10 06:34:37;;;;;;;;;;;12.20;99.90;;;;;;20985138;28;20012;-80
2023/10/10 06:44:39;;;;;;;;;;;12.60;99.90;;;;;;21010020;28;19912;-80
2023/10/10 06:54:44;;;;;;;;;;;12.90;99.90;;;;;;21025651;28;19920;-80
2023/10/10 07:04:52;;;;;;;;;;;14.00;99.90;;;;;;21034419;28;19919;-80
2023/10/10 07:14:54;;;;;;;;;;;14.20;99.90;;;;;;21025226;28;19917;-81
2023/10/10 07:25:06;;;;;;;;;;;14.20;99.90;;;;;;21025131;28;19917;-80
2023/10/10 07:35:08;;;;;;;;;;;14.60;99.90;;;;;;20988373;28;19916;-80
2023/10/10 07:45:15;;;;;;;;;;;15.20;99.90;;;;;;21025546;28;19913;-81
2023/10/10 07:55:16;;;;;;;;;;;15.60;99.90;;;;;;21047090;28;19916;-81
2023/10/10 08:05:19;;;;;;;;;;;16.90;99.90;;;;;;21027838;28;20287;-81
2023/10/10 08:15:20;;;;;;;;;;;17.40;99.90;;;;;;21010442;28;19917;-80
2023/10/10 08:25:21;;;;;;;;;;;16.90;99.90;;;;;;20984810;28;19921;-80
2023/10/10 08:35:23;;;;;;;;;;;17.70;99.90;;;;;;20998171;28;19920;-80
2023/10/10 08:45:24;;;;;;;;;;;18.50;99.90;;;;;;21018282;28;19912;-80
2023/10/10 08:55:28;;;;;;;;;;;18.20;99.90;;;;;;21022059;28;19920;-81
2023/10/10 09:05:29;;;;;;;;;;;18.00;99.90;;;;;;21016123;28;19913;-81
2023/10/10 09:15:30;;;;;;;;;;;19.10;99.90;;;;;;21007200;28;19985;-82
2023/10/10 09:25:48;;;;;;;;;;;19.90;99.90;;;;;;21006865;28;19924;-80
2023/10/10 09:35:58;;;;;;;;;;;21.40;99.90;;;;;;20982851;28;20520;-81
2023/10/10 09:46:10;;;;;;;;;;;22.80;99.90;;;;;;20975139;28;19917;-81
2023/10/10 09:56:13;;;;;;;;;;;23.00;99.90;;;;;;20985423;28;19924;-81
2023/10/10 10:16:39;;;;;;;;;;;23.90;99.90;;;;;;20997112;28;20023;-76
2023/10/10 10:26:43;;;;;;;;;;;25.10;99.90;;;;;;20987580;28;19923;-75
2023/10/10 10:36:50;;;;;;;;;;;25.30;99.90;;;;;;20982872;28;19916;-76
2023/10/10 10:46:56;;;;;;;;;;;26.80;99.90;;;;;;21027251;28;20015;-76
2023/10/10 10:57:01;;;;;;;;;;;26.50;99.90;;;;;;21023442;28;19956;-76
2023/10/10 11:07:07;;;;;;;;;;;27.60;99.90;;;;;;21012082;28;19916;-76
2023/10/10 11:17:17;;;;;;;;;;;25.90;99.90;;;;;;21020678;28;19978;-77
2023/10/10 11:27:25;;;;;;;;;;;26.20;99.90;;;;;;21019205;28;20327;-79
2023/10/10 11:37:30;;;;;;;;;;;27.10;99.90;;;;;;21034286;28;20049;-79
2023/10/10 11:47:42;;;;;;;;;;;26.70;99.90;;;;;;21026616;28;19919;-79
2023/10/10 11:57:42;;;;;;;;;;;25.30;99.90;;;;;;21020791;28;19927;-77
2023/10/10 12:07:43;;;;;;;;;;;24.70;99.90;;;;;;21019988;28;20410;-77
2023/10/10 12:17:43;;;;;;;;;;;24.80;99.90;;;;;;21037365;28;19920;-77
2023/10/10 12:27:46;;;;;;;;;;;24.30;99.90;;;;;;21017170;28;20313;-78
2023/10/10 12:37:46;;;;;;;;;;;24.40;99.90;;;;;;21019335;28;19923;-79
2023/10/10 12:47:48;;;;;;;;;;;24.50;99.90;;;;;;21023435;28;20002;-77
2023/10/10 12:57:54;;;;;;;;;;;24.50;99.90;;;;;;21025388;28;19977;-78
2023/10/10 13:07:58;;;;;;;;;;;24.20;99.90;;;;;;21033760;28;19920;-79
2023/10/10 13:18:19;;;;;;;;;;;24.70;99.90;;;;;;21045468;28;20469;-79
2023/10/10 13:28:21;;;;;;;;;;;25.30;99.90;;;;;;21047564;28;19965;-79
2023/10/10 13:38:21;;;;;;;;;;;25.70;99.90;;;;;;21043510;28;19955;-79
2023/10/10 13:48:24;;;;;;;;;;;26.60;99.40;;;;;;21026785;28;19917;-80
2023/10/10 13:58:25;;;;;;;;;;;25.80;98.00;;;;;;21004768;28;19994;-80
2023/10/10 14:08:26;;;;;;;;;;;25.40;98.70;;;;;;21015784;28;19924;-78
2023/10/10 14:18:31;;;;;;;;;;;24.80;99.90;;;;;;21028318;28;19916;-79
2023/10/10 14:28:33;;;;;;;;;;;25.10;99.90;;;;;;21022014;28;19947;-80
2023/10/10 14:38:34;;;;;;;;;;;25.20;99.00;;;;;;21019634;28;19917;-79
2023/10/10 14:48:35;;;;;;;;;;;25.00;98.60;;;;;;21027840;28;19965;-80
2023/10/10 14:58:35;;;;;;;;;;;25.80;99.00;;;;;;21053253;28;20283;-81
2023/10/10 15:08:39;;;;;;;;;;;27.20;94.20;;;;;;21085536;28;20566;-80
2023/10/10 15:18:41;;;;;;;;;;;28.10;91.90;;;;;;21084333;28;20290;-80
2023/10/10 15:28:41;;;;;;;;;;;26.80;91.20;;;;;;21063115;28;20379;-80
2023/10/10 15:38:43;;;;;;;;;;;25.80;96.20;;;;;;21068854;28;19972;-79
2023/10/10 15:48:48;;;;;;;;;;;25.20;97.80;;;;;;21053798;28;19918;-80
2023/10/10 15:58:52;;;;;;;;;;;24.50;99.90;;;;;;21037154;28;20335;-78
2023/10/10 16:08:53;;;;;;;;;;;23.30;99.90;;;;;;20992528;28;20006;-79
2023/10/10 16:18:54;;;;;;;;;;;22.30;99.90;;;;;;21020628;28;20011;-78
2023/10/10 16:28:55;;;;;;;;;;;21.30;99.90;;;;;;21008438;28;20005;-77
2023/10/10 16:38:56;;;;;;;;;;;20.90;99.90;;;;;;20971139;28;19923;-78
2023/10/10 16:48:57;;;;;;;;;;;20.00;99.90;;;;;;21005502;28;20435;-78
2023/10/10 16:58:57;;;;;;;;;;;19.20;99.90;;;;;;21013281;28;19924;-78
2023/10/10 17:09:03;;;;;;;;;;;19.10;99.90;;;;;;21017588;28;19920;-79
2023/10/10 17:19:05;;;;;;;;;;;19.00;99.90;;;;;;21060042;28;19924;-79
2023/10/10 17:29:05;;;;;;;;;;;18.30;99.90;;;;;;21076587;28;19917;-80
2023/10/10 17:39:08;;;;;;;;;;;18.00;99.90;;;;;;21079284;28;20004;-80
2023/10/10 17:49:09;;;;;;;;;;;18.10;99.90;;;;;;21052641;28;20422;-79
2023/10/10 17:59:11;;;;;;;;;;;18.20;99.90;;;;;;21074857;28;19916;-78
2023/10/10 18:09:16;;;;;;;;;;;17.90;99.90;;;;;;21070989;28;20039;-79
2023/10/10 18:19:18;;;;;;;;;;;17.40;99.90;;;;;;21046731;28;19927;-80
2023/10/10 18:29:18;;;;;;;;;;;17.60;99.90;;;;;;21033942;28;19939;-79
2023/10/10 18:39:19;;;;;;;;;;;17.00;99.90;;;;;;21060827;28;19920;-81
2023/10/10 18:49:21;;;;;;;;;;;17.00;99.90;;;;;;21052175;28;19912;-80
2023/10/10 18:59:22;;;;;;;;;;;17.00;99.90;;;;;;21070264;28;19916;-79
2023/10/10 19:09:23;;;;;;;;;;;16.60;99.90;;;;;;21014366;28;20318;-78
2023/10/10 19:19:23;;;;;;;;;;;16.00;99.90;;;;;;20993429;28;19970;-78
2023/10/10 19:29:28;;;;;;;;;;;15.80;99.90;;;;;;21010370;28;19916;-78
2023/10/10 19:39:29;;;;;;;;;;;15.30;99.90;;;;;;21076639;28;19999;-78
2023/10/10 19:49:34;;;;;;;;;;;15.30;99.90;;;;;;20994056;28;19913;-81
2023/10/10 19:59:37;;;;;;;;;;;15.00;99.90;;;;;;20988474;28;19917;-84
2023/10/10 20:09:37;;;;;;;;;;;14.30;99.90;;;;;;20986749;28;20261;-81
2023/10/10 20:19:39;;;;;;;;;;;14.20;99.90;;;;;;21007155;28;19943;-82
2023/10/10 20:29:39;;;;;;;;;;;13.90;99.90;;;;;;21031379;28;19920;-82
2023/10/10 20:39:41;;;;;;;;;;;13.70;99.90;;;;;;21030600;28;19978;-81
2023/10/10 20:49:42;;;;;;;;;;;13.50;99.90;;;;;;21014931;28;19912;-81
2023/10/10 20:59:45;;;;;;;;;;;13.30;99.90;;;;;;21016303;28;19959;-82
2023/10/10 21:10:15;;;;;;;;;;;13.40;99.90;;;;;;21013259;28;19912;-81
2023/10/10 21:20:27;;;;;;;;;;;13.30;99.90;;;;;;20953330;28;19928;-80
2023/10/10 21:30:29;;;;;;;;;;;13.10;99.90;;;;;;21044504;28;19939;-82
2023/10/10 21:40:32;;;;;;;;;;;13.20;99.90;;;;;;21020531;28;20300;-81
2023/10/10 21:50:33;;;;;;;;;;;13.20;99.90;;;;;;21045171;28;20003;-81
2023/10/10 22:10:35;;;;;;;;;;;12.60;99.90;;;;;;21012853;28;19913;-82
2023/10/10 22:20:36;;;;;;;;;;;12.70;99.90;;;;;;21049235;28;19917;-81
2023/10/10 22:30:39;;;;;;;;;;;12.20;99.90;;;;;;21062544;28;19916;-82
2023/10/10 22:40:40;;;;;;;;;;;12.40;99.90;;;;;;21038237;28;19944;-81
2023/10/10 22:50:41;;;;;;;;;;;12.20;99.90;;;;;;21056557;28;19966;-81
2023/10/10 23:00:41;;;;;;;;;;;12.20;99.90;;;;;;21071901;28;19930;-82
2023/10/10 23:10:43;;;;;;;;;;;12.00;99.90;;;;;;21055833;28;19924;-80
2023/10/10 23:20:44;;;;;;;;;;;11.90;99.90;;;;;;21080812;28;19927;-81
2023/10/10 23:30:45;;;;;;;;;;;11.60;99.90;;;;;;21054448;28;19917;-81
2023/10/10 23:40:46;;;;;;;;;;;11.50;99.90;;;;;;21064638;28;19931;-81
2023/10/10 23:50:46;;;;;;;;;;;11.70;99.90;;;;;;21049750;28;19917;-81
